createdAt,value
2023-08-03T00:02:22.313Z,68.84
2023-08-03T00:04:55.020Z,68.38
2023-08-03T00:07:27.549Z,68.61
2023-08-03T00:10:00.205Z,68.38
2023-08-03T00:12:32.716Z,68.91
2023-08-03T00:15:05.801Z,68.74
2023-08-03T00:17:38.968Z,68.50
2023-08-03T00:20:11.959Z,68.40
2023-08-03T00:22:47.396Z,68.17
2023-08-03T00:25:19.867Z,68.11
2023-08-03T00:27:52.284Z,68.52
2023-08-03T00:30:25.077Z,68.24
2023-08-03T00:32:57.634Z,68.47
2023-08-03T00:35:30.137Z,67.75
2023-08-03T00:38:03.976Z,68.56
2023-08-03T00:40:36.492Z,68.63
2023-08-03T00:43:09.106Z,69.01
2023-08-03T00:45:41.631Z,69.28
2023-08-03T00:48:15.144Z,69.19
2023-08-03T00:50:47.649Z,68.65
2023-08-03T00:53:20.166Z,69.27
2023-08-03T00:55:52.670Z,69.44
2023-08-03T00:58:25.273Z,69.74
2023-08-03T01:00:57.966Z,69.52
2023-08-03T01:03:30.573Z,69.42
2023-08-03T01:06:03.094Z,69.77
2023-08-03T01:08:35.528Z,69.12
2023-08-03T01:11:08.037Z,69.46
2023-08-03T01:13:40.672Z,69.49
2023-08-03T01:16:14.059Z,69.56
2023-08-03T01:18:46.558Z,69.09
2023-08-03T01:21:21.327Z,69.50
2023-08-03T01:23:53.945Z,69.02
2023-08-03T01:26:26.691Z,68.43
2023-08-03T01:28:59.174Z,68.85
2023-08-03T01:31:32.673Z,68.51
2023-08-03T01:34:05.933Z,68.96
2023-08-03T01:36:38.417Z,68.19
2023-08-03T01:39:11.162Z,68.59
2023-08-03T01:41:44.289Z,68.22
2023-08-03T01:44:23.355Z,68.03
2023-08-03T01:46:57.700Z,67.99
2023-08-03T01:49:32.479Z,67.71
2023-08-03T01:52:04.993Z,68.11
2023-08-03T01:54:37.510Z,67.43
2023-08-03T01:57:10.075Z,67.44
2023-08-03T01:59:42.617Z,68.00
2023-08-03T02:02:16.088Z,68.41
2023-08-03T02:04:48.584Z,68.13
2023-08-03T02:07:43.095Z,68.09
2023-08-03T02:10:16.117Z,68.69
2023-08-03T02:12:49.050Z,68.38
2023-08-03T02:15:21.687Z,68.76
2023-08-03T02:17:54.247Z,68.82
2023-08-03T02:20:26.764Z,69.12
2023-08-03T02:22:59.176Z,68.41
2023-08-03T02:25:31.660Z,68.78
2023-08-03T02:28:04.412Z,67.91
2023-08-03T02:30:38.715Z,68.25
2023-08-03T02:33:11.156Z,68.46
2023-08-03T02:35:43.730Z,68.48
2023-08-03T02:38:16.263Z,68.03
2023-08-03T02:40:48.740Z,68.18
2023-08-03T02:43:21.263Z,67.99
2023-08-03T02:45:54.104Z,68.22
2023-08-03T02:48:26.602Z,68.11
2023-08-03T02:51:00.658Z,67.79
2023-08-03T02:53:34.640Z,67.42
2023-08-03T02:56:07.159Z,67.65
2023-08-03T02:58:39.649Z,68.35
2023-08-03T03:01:12.438Z,68.25
2023-08-03T03:03:45.262Z,67.74
2023-08-03T03:06:18.298Z,67.62
2023-08-03T03:08:50.776Z,68.16
2023-08-03T03:11:23.332Z,68.32
2023-08-03T03:13:55.756Z,68.07
2023-08-03T03:16:28.352Z,67.49
2023-08-03T03:19:00.881Z,67.79
2023-08-03T03:21:33.359Z,68.28
2023-08-03T03:24:05.966Z,68.68
2023-08-03T03:26:38.484Z,69.25
2023-08-03T03:29:11.009Z,69.28
2023-08-03T03:31:43.945Z,68.99
2023-08-03T03:34:16.729Z,69.02
2023-08-03T03:36:51.578Z,68.89
2023-08-03T03:39:24.137Z,69.27
2023-08-03T03:41:56.628Z,69.44
2023-08-03T03:44:29.193Z,69.08
2023-08-03T03:47:01.747Z,68.94
2023-08-03T03:49:34.296Z,68.66
2023-08-03T03:52:07.314Z,69.30
2023-08-03T03:54:39.808Z,68.67
2023-08-03T03:57:12.339Z,68.83
2023-08-03T03:59:44.804Z,68.71
2023-08-03T04:02:17.313Z,68.58
2023-08-03T04:04:49.739Z,69.16
2023-08-03T04:07:22.252Z,68.38
2023-08-03T04:09:54.721Z,68.61
2023-08-03T04:12:27.167Z,68.99
2023-08-03T04:14:59.656Z,69.19
2023-08-03T04:17:32.167Z,68.86
2023-08-03T04:20:07.698Z,68.77
2023-08-03T04:22:40.149Z,69.42
2023-08-03T04:25:12.970Z,69.74
2023-08-03T04:27:45.459Z,68.78
2023-08-03T04:30:18.126Z,69.30
2023-08-03T04:32:50.660Z,69.42
2023-08-03T04:35:23.155Z,70.46
2023-08-03T04:37:55.567Z,70.82
2023-08-03T04:40:28.095Z,70.55
2023-08-03T04:43:00.601Z,70.48
2023-08-03T04:45:33.143Z,70.73
2023-08-03T04:48:05.757Z,71.10
2023-08-03T04:50:39.086Z,71.27
2023-08-03T04:53:11.591Z,70.32
2023-08-03T04:55:46.137Z,70.13
2023-08-03T04:58:18.687Z,70.41
2023-08-03T05:00:51.472Z,69.66
2023-08-03T05:03:24.087Z,69.55
2023-08-03T05:05:56.593Z,69.88
2023-08-03T05:08:29.158Z,70.12
2023-08-03T05:11:01.667Z,69.16
2023-08-03T05:13:34.292Z,69.20
2023-08-03T05:16:06.863Z,69.02
2023-08-03T05:18:39.870Z,68.81
2023-08-03T05:21:12.390Z,68.51
2023-08-03T05:23:48.456Z,68.38
2023-08-03T05:26:20.924Z,68.27
2023-08-03T05:28:53.597Z,67.79
2023-08-03T05:31:27.370Z,68.08
2023-08-03T05:33:59.928Z,67.93
2023-08-03T05:36:32.619Z,67.82
2023-08-03T05:39:06.057Z,67.68
2023-08-03T05:41:40.527Z,67.66
2023-08-03T05:44:14.470Z,66.76
2023-08-03T05:46:47.557Z,66.48
2023-08-03T05:49:20.307Z,66.46
2023-08-03T05:51:52.956Z,66.48
2023-08-03T05:54:25.425Z,66.23
2023-08-03T05:56:58.192Z,66.13
2023-08-03T05:59:30.675Z,66.09
2023-08-03T06:02:11.985Z,66.32
2023-08-03T06:04:44.963Z,66.33
2023-08-03T06:07:17.951Z,66.61
2023-08-03T06:09:50.904Z,66.43
2023-08-03T06:12:23.790Z,66.48
2023-08-03T06:14:56.314Z,65.98
2023-08-03T06:17:28.896Z,65.70
2023-08-03T06:20:01.419Z,66.11
2023-08-03T06:22:33.977Z,65.92
2023-08-03T06:25:11.244Z,65.98
2023-08-03T06:27:43.810Z,66.15
2023-08-03T06:30:18.425Z,66.52
2023-08-03T06:32:51.367Z,66.04
2023-08-03T06:35:33.146Z,65.53
2023-08-03T06:38:08.790Z,66.06
2023-08-03T06:40:42.568Z,65.41
2023-08-03T06:43:15.669Z,65.45
2023-08-03T06:45:48.240Z,65.14
2023-08-03T06:48:20.961Z,65.96
2023-08-03T06:50:54.833Z,65.79
2023-08-03T06:53:27.373Z,65.34
2023-08-03T06:56:00.002Z,64.85
2023-08-03T06:58:33.196Z,65.24
2023-08-03T07:01:05.758Z,65.16
2023-08-03T07:03:38.452Z,64.76
2023-08-03T07:06:10.972Z,64.51
2023-08-03T07:08:43.436Z,65.28
2023-08-03T07:11:15.908Z,65.06
2023-08-03T07:13:48.303Z,65.09
2023-08-03T07:16:22.319Z,64.17
2023-08-03T07:18:54.805Z,64.30
2023-08-03T07:21:27.270Z,63.61
2023-08-03T07:23:59.748Z,63.46
2023-08-03T07:26:32.242Z,63.46
2023-08-03T07:29:04.644Z,63.69
2023-08-03T07:31:37.140Z,63.81
2023-08-03T07:34:09.629Z,64.29
2023-08-03T07:36:42.070Z,63.67
2023-08-03T07:39:14.552Z,62.06
2023-08-03T07:41:47.119Z,61.12
2023-08-03T07:44:20.066Z,61.38
2023-08-03T07:46:52.518Z,61.25
2023-08-03T07:49:24.986Z,61.03
2023-08-03T07:51:57.613Z,61.30
2023-08-03T07:54:31.784Z,61.01
2023-08-03T07:57:05.227Z,61.58
2023-08-03T07:59:38.035Z,61.95
2023-08-03T08:02:10.638Z,62.17
2023-08-03T08:04:43.214Z,62.46
2023-08-03T08:07:17.079Z,62.51
2023-08-03T08:09:49.584Z,62.89
2023-08-03T08:12:22.358Z,62.64
2023-08-03T08:14:54.848Z,63.86
2023-08-03T08:17:27.393Z,64.45
2023-08-03T08:20:00.772Z,65.58
2023-08-03T08:22:33.349Z,65.63
2023-08-03T08:25:06.478Z,65.81
2023-08-03T08:27:39.272Z,65.34
2023-08-03T08:30:12.022Z,64.89
2023-08-03T08:32:44.545Z,64.47
2023-08-03T08:35:17.085Z,64.45
2023-08-03T08:37:49.553Z,64.21
2023-08-03T08:40:21.992Z,65.03
2023-08-03T08:42:55.387Z,64.07
2023-08-03T08:45:28.217Z,64.11
2023-08-03T08:51:07.569Z,64.17
2023-08-03T08:53:28.699Z,64.19
2023-08-03T09:01:12.041Z,64.26
2023-08-03T09:06:32.756Z,65.31
2023-08-03T09:09:06.141Z,65.91
2023-08-03T09:11:42.276Z,66.03
2023-08-03T09:14:15.653Z,65.53
2023-08-03T09:16:48.326Z,65.77
2023-08-03T09:19:37.655Z,65.95
2023-08-03T09:22:10.142Z,65.28
2023-08-03T09:24:42.704Z,64.77
2023-08-03T09:27:18.173Z,65.06
2023-08-03T09:29:55.917Z,65.92
2023-08-03T09:32:35.473Z,65.49
2023-08-03T09:35:18.122Z,67.03
2023-08-03T09:37:53.022Z,66.53
2023-08-03T09:40:25.965Z,66.65
2023-08-03T09:43:02.169Z,65.92
2023-08-03T09:45:37.510Z,65.51
2023-08-03T09:48:11.782Z,65.24
2023-08-03T09:50:52.286Z,64.73
2023-08-03T09:53:46.129Z,64.55
2023-08-03T09:56:23.010Z,63.87
2023-08-03T09:59:00.438Z,64.03
2023-08-03T10:01:34.771Z,63.99
2023-08-03T10:04:11.831Z,63.27
2023-08-03T10:06:47.869Z,64.06
2023-08-03T10:09:25.797Z,63.38
2023-08-03T10:12:04.934Z,62.93
2023-08-03T10:14:42.865Z,61.91
2023-08-03T10:17:15.966Z,60.97
2023-08-03T10:19:49.194Z,60.46
2023-08-03T10:22:21.669Z,59.87
2023-08-03T10:25:18.753Z,59.56
2023-08-03T10:28:14.535Z,58.58
2023-08-03T10:31:11.816Z,59.56
2023-08-03T10:33:47.558Z,58.10
2023-08-03T10:36:29.395Z,58.01
2023-08-03T10:39:04.583Z,57.05
2023-08-03T10:41:39.176Z,57.33
2023-08-03T10:44:13.400Z,56.92
2023-08-03T10:46:50.861Z,56.65
2023-08-03T10:49:29.108Z,56.58
2023-08-03T10:52:25.920Z,56.26
2023-08-03T10:55:00.419Z,56.39
2023-08-03T10:57:33.612Z,56.63
2023-08-03T11:00:08.609Z,56.75
2023-08-03T11:02:43.895Z,56.51
2023-08-03T11:05:16.717Z,57.40
2023-08-03T11:07:49.574Z,57.33
2023-08-03T11:10:23.494Z,57.93
2023-08-03T11:12:57.340Z,57.23
2023-08-03T11:15:29.895Z,58.06
2023-08-03T11:18:02.396Z,57.92
2023-08-03T11:20:42.588Z,59.66
2023-08-03T11:23:15.185Z,60.13
2023-08-03T11:25:47.727Z,61.81
2023-08-03T11:28:20.220Z,63.59
2023-08-03T11:30:52.709Z,64.45
2023-08-03T11:33:25.181Z,65.55
2023-08-03T11:35:57.949Z,65.48
2023-08-03T11:38:30.378Z,65.39
2023-08-03T11:41:03.044Z,64.64
2023-08-03T11:43:35.525Z,64.23
2023-08-03T11:46:08.411Z,63.66
2023-08-03T11:48:45.460Z,64.30
2023-08-03T11:51:20.352Z,65.32
2023-08-03T11:53:54.512Z,66.01
2023-08-03T11:56:38.253Z,65.83
2023-08-03T11:59:15.964Z,65.60
2023-08-03T12:01:50.807Z,65.45
2023-08-03T12:07:19.918Z,67.46
2023-08-03T12:09:52.988Z,67.12
2023-08-03T12:12:26.564Z,67.35
2023-08-03T12:15:00.753Z,67.14
2023-08-03T12:17:33.397Z,67.86
2023-08-03T12:20:06.910Z,67.79
2023-08-03T12:22:39.300Z,67.33
2023-08-03T12:25:11.753Z,67.11
2023-08-03T12:27:44.225Z,68.88
2023-08-03T12:30:16.872Z,68.53
2023-08-03T12:32:49.456Z,68.34
2023-08-03T12:35:22.065Z,69.36
2023-08-03T12:40:29.941Z,69.95
2023-08-03T12:43:02.424Z,69.74
2023-08-03T12:45:35.016Z,69.76
2023-08-03T12:48:16.804Z,68.29
2023-08-03T12:50:50.155Z,68.12
2023-08-03T12:53:22.647Z,67.69
2023-08-03T12:55:55.782Z,67.36
2023-08-03T12:58:28.542Z,66.34
2023-08-03T13:01:01.346Z,66.89
2023-08-03T13:03:34.154Z,65.83
2023-08-03T13:06:06.824Z,65.47
2023-08-03T13:08:39.399Z,64.26
2023-08-03T13:11:12.391Z,64.46
2023-08-03T13:13:45.030Z,64.41
2023-08-03T13:16:17.684Z,63.86
2023-08-03T13:18:50.501Z,63.52
2023-08-03T13:21:23.333Z,64.69
2023-08-03T13:23:55.843Z,64.36
2023-08-03T13:26:30.190Z,63.58
2023-08-03T13:29:03.182Z,63.02
2023-08-03T13:31:35.708Z,62.62
2023-08-03T13:34:08.231Z,62.35
2023-08-03T13:36:40.750Z,61.99
2023-08-03T13:39:13.205Z,61.81
2023-08-03T13:41:45.756Z,60.98
2023-08-03T13:44:18.314Z,60.97
2023-08-03T13:46:50.948Z,60.81
2023-08-03T13:49:23.414Z,59.34
2023-08-03T13:51:55.987Z,59.99
2023-08-03T13:54:28.843Z,58.91
2023-08-03T13:57:01.367Z,58.09
2023-08-03T13:59:33.977Z,58.49
2023-08-03T14:02:07.340Z,58.17
2023-08-03T14:04:41.111Z,57.06
2023-08-03T14:17:55.805Z,57.76
2023-08-03T14:23:04.158Z,58.16
2023-08-03T14:30:47.602Z,56.01
2023-08-03T14:33:21.431Z,54.87
2023-08-03T14:35:53.985Z,54.20
2023-08-03T14:38:26.821Z,54.51
2023-08-03T14:40:59.257Z,52.62
2023-08-03T14:43:31.726Z,53.72
2023-08-03T14:46:04.828Z,54.14
2023-08-03T14:48:37.761Z,54.14
2023-08-03T14:53:45.813Z,55.15
2023-08-03T14:58:53.635Z,54.19
2023-08-03T15:01:28.857Z,54.09
2023-08-03T15:04:04.640Z,54.49
2023-08-03T15:06:41.273Z,53.95
2023-08-03T15:09:13.929Z,53.81
2023-08-03T15:11:46.629Z,53.13
2023-08-03T15:14:24.191Z,52.55
2023-08-03T15:17:16.023Z,52.27
2023-08-03T15:19:49.818Z,52.91
2023-08-03T15:22:23.148Z,52.04
2023-08-03T15:24:56.558Z,53.15
2023-08-03T15:27:30.283Z,53.24
2023-08-03T15:30:32.353Z,52.59
2023-08-03T15:35:39.487Z,51.14
2023-08-03T15:38:14.489Z,51.27
2023-08-03T15:41:02.111Z,49.53
2023-08-03T15:43:40.250Z,51.16
2023-08-03T15:46:16.868Z,50.43
2023-08-03T15:51:32.980Z,51.00
2023-08-03T15:54:14.624Z,51.01
2023-08-03T15:59:21.092Z,49.94
2023-08-03T16:01:53.735Z,50.80
2023-08-03T16:04:26.296Z,50.32
2023-08-03T16:06:58.819Z,49.76
2023-08-03T16:09:31.235Z,49.97
2023-08-03T16:12:03.978Z,50.00
2023-08-03T16:14:36.401Z,49.91
2023-08-03T16:17:11.469Z,50.69
2023-08-03T16:19:44.126Z,50.68
2023-08-03T16:22:16.602Z,51.74
2023-08-03T16:24:52.411Z,51.57
2023-08-03T16:27:24.877Z,52.30
2023-08-03T16:30:02.659Z,51.90
2023-08-03T16:32:36.641Z,52.50
2023-08-03T16:35:09.647Z,52.27
2023-08-03T16:37:42.403Z,53.33
2023-08-03T16:40:14.933Z,53.08
2023-08-03T16:42:51.245Z,53.24
2023-08-03T16:45:24.215Z,52.42
2023-08-03T16:47:57.855Z,52.64
2023-08-03T16:50:31.897Z,52.90
2023-08-03T16:53:04.457Z,51.74
2023-08-03T16:55:36.909Z,50.09
2023-08-03T16:58:09.815Z,49.67
2023-08-03T17:00:42.412Z,49.19
2023-08-03T17:03:14.923Z,49.46
2023-08-03T17:05:47.409Z,50.93
2023-08-03T17:08:20.538Z,51.05
2023-08-03T17:10:55.341Z,51.91
2023-08-03T17:13:27.906Z,52.24
2023-08-03T17:16:05.165Z,52.26
2023-08-03T17:18:38.777Z,51.52
2023-08-03T17:21:11.368Z,51.88
2023-08-03T17:23:43.942Z,52.03
2023-08-03T17:26:16.550Z,51.69
2023-08-03T17:28:49.006Z,51.17
2023-08-03T17:31:21.421Z,51.50
2023-08-03T17:33:53.960Z,51.51
2023-08-03T17:36:26.651Z,52.16
2023-08-03T17:38:59.451Z,51.04
2023-08-03T17:41:32.136Z,51.59
2023-08-03T17:44:04.786Z,51.83
2023-08-03T17:46:39.461Z,51.26
2023-08-03T17:49:12.050Z,52.06
2023-08-03T17:51:44.642Z,53.49
2023-08-03T17:54:17.124Z,53.63
2023-08-03T17:56:52.044Z,52.72
2023-08-03T17:59:24.885Z,52.65
2023-08-03T18:01:58.480Z,52.22
2023-08-03T18:04:33.349Z,53.20
2023-08-03T18:07:06.001Z,53.29
2023-08-03T18:09:38.600Z,53.59
2023-08-03T18:12:11.108Z,53.92
2023-08-03T18:14:43.653Z,53.71
2023-08-03T18:17:17.455Z,54.13
2023-08-03T18:19:50.084Z,54.03
2023-08-03T18:22:22.554Z,54.43
2023-08-03T18:24:55.163Z,53.97
2023-08-03T18:27:27.607Z,55.05
2023-08-03T18:30:00.175Z,55.53
2023-08-03T18:32:32.705Z,55.36
2023-08-03T18:35:05.690Z,55.38
2023-08-03T18:37:38.237Z,55.32
2023-08-03T18:40:11.299Z,55.90
2023-08-03T18:42:43.856Z,56.32
2023-08-03T18:45:16.387Z,56.25
2023-08-03T18:47:48.895Z,56.69
2023-08-03T18:50:21.451Z,56.76
2023-08-03T18:52:53.964Z,58.35
2023-08-03T18:55:26.468Z,58.21
2023-08-03T18:57:58.940Z,58.52
2023-08-03T19:00:31.435Z,58.61
2023-08-03T19:03:04.233Z,56.98
2023-08-03T19:05:38.827Z,57.16
2023-08-03T19:08:11.430Z,56.13
2023-08-03T19:10:43.928Z,57.65
2023-08-03T19:13:17.818Z,58.00
2023-08-03T19:15:50.786Z,59.26
2023-08-03T19:18:23.934Z,59.70
2023-08-03T19:20:58.629Z,58.67
2023-08-03T19:23:31.235Z,59.33
2023-08-03T19:26:03.763Z,59.45
2023-08-03T19:28:36.643Z,59.43
2023-08-03T19:31:09.134Z,59.13
2023-08-03T19:33:41.914Z,59.05
2023-08-03T19:36:15.272Z,58.64
2023-08-03T19:38:49.779Z,59.08
2023-08-03T19:41:22.359Z,58.77
2023-08-03T19:43:55.047Z,58.48
2023-08-03T19:46:27.686Z,58.68
2023-08-03T19:49:00.341Z,58.44
2023-08-03T19:56:43.650Z,58.32
2023-08-03T20:09:46.839Z,58.69
2023-08-03T20:12:19.311Z,58.92
2023-08-03T20:15:10.762Z,58.83
2023-08-03T20:17:43.713Z,59.08
2023-08-03T20:20:16.393Z,58.87
2023-08-03T20:22:48.895Z,58.99
2023-08-03T20:25:21.619Z,59.05
2023-08-03T20:27:54.063Z,58.55
2023-08-03T20:30:26.546Z,58.75
2023-08-03T20:33:04.816Z,59.04
2023-08-03T20:35:37.978Z,59.34
2023-08-03T20:38:10.503Z,59.08
2023-08-03T20:45:53.962Z,59.64
2023-08-03T20:51:05.285Z,59.58
2023-08-03T20:53:37.848Z,59.69
2023-08-03T20:56:10.905Z,59.68
2023-08-03T20:58:46.000Z,60.02
2023-08-03T21:01:18.564Z,60.09
2023-08-03T21:03:51.294Z,60.37
2023-08-03T21:06:23.839Z,60.33
2023-08-03T21:08:56.342Z,60.24
2023-08-03T21:11:28.809Z,60.39
2023-08-03T21:14:01.368Z,60.65
2023-08-03T21:16:34.313Z,60.64
2023-08-03T21:19:10.260Z,60.56
2023-08-03T21:21:43.696Z,60.65
2023-08-03T21:24:16.272Z,60.94
2023-08-03T21:26:48.766Z,60.88
2023-08-03T21:29:21.195Z,61.19
2023-08-03T21:31:53.699Z,61.17
2023-08-03T21:34:26.151Z,61.29
2023-08-03T21:36:58.633Z,61.46
2023-08-03T21:39:31.162Z,61.17
2023-08-03T21:42:05.406Z,61.59
2023-08-03T21:44:41.029Z,61.31
2023-08-03T21:47:14.016Z,61.91
2023-08-03T21:49:48.117Z,62.26
2023-08-03T21:52:20.567Z,61.74
2023-08-03T21:54:53.092Z,61.67
2023-08-03T21:57:25.572Z,62.13
2023-08-03T21:59:58.050Z,61.82
2023-08-03T22:02:30.644Z,61.50
2023-08-03T22:05:06.546Z,61.56
2023-08-03T22:07:40.084Z,61.64
2023-08-03T22:10:14.182Z,61.49
2023-08-03T22:12:51.372Z,61.88
2023-08-03T22:15:24.012Z,61.89
2023-08-03T22:17:56.448Z,61.56
2023-08-03T22:20:29.120Z,62.20
2023-08-03T22:23:01.549Z,62.72
2023-08-03T22:25:36.044Z,62.65
2023-08-03T22:28:08.520Z,62.34
2023-08-03T22:30:41.374Z,63.22
2023-08-03T22:33:13.859Z,63.12
2023-08-03T22:35:46.432Z,63.03
2023-08-03T22:38:18.935Z,62.88
2023-08-03T22:40:59.066Z,63.20
2023-08-03T22:43:31.734Z,63.00
2023-08-03T22:46:04.623Z,62.54
2023-08-03T22:48:38.319Z,62.88
2023-08-03T22:51:17.770Z,62.87
2023-08-03T22:53:50.258Z,62.93
2023-08-03T22:56:22.714Z,62.97
2023-08-03T22:58:55.506Z,62.62
2023-08-03T23:01:28.270Z,62.76
2023-08-03T23:04:01.019Z,63.27
2023-08-03T23:06:33.766Z,63.28
2023-08-03T23:09:06.220Z,63.45
2023-08-03T23:11:38.727Z,64.04
2023-08-03T23:14:11.645Z,63.74
2023-08-03T23:16:46.247Z,63.77
2023-08-03T23:19:19.386Z,64.02
2023-08-03T23:21:51.792Z,64.16
2023-08-03T23:24:24.325Z,64.60
2023-08-03T23:26:56.858Z,64.10
2023-08-03T23:29:29.529Z,64.61
2023-08-03T23:32:02.025Z,64.89
2023-08-03T23:34:34.493Z,64.86
2023-08-03T23:37:07.398Z,65.14
2023-08-03T23:39:39.946Z,65.20
2023-08-03T23:42:12.458Z,65.22
2023-08-03T23:44:44.938Z,65.75
2023-08-03T23:47:17.609Z,65.43
2023-08-03T23:49:50.127Z,66.02
2023-08-03T23:52:22.667Z,65.96
2023-08-03T23:54:55.474Z,66.12
2023-08-03T23:57:27.962Z,66.79
